sensor_id;sensor_type;location;lat;lon;timestamp;pressure;altitude;pressure_sealevel;temperature;humidity
12536;BME280;6334;48.696;2.114;2023-07-29T00:00:08;99315.80;;;20.15;74.27
12536;BME280;6334;48.696;2.114;2023-07-29T00:02:39;99312.27;;;20.09;74.64
12536;BME280;6334;48.696;2.114;2023-07-29T00:05:09;99318.23;;;20.12;75.16
12536;BME280;6334;48.696;2.114;2023-07-29T00:07:39;99313.98;;;20.11;75.74
12536;BME280;6334;48.696;2.114;2023-07-29T00:10:10;99309.63;;;20.15;75.26
12536;BME280;6334;48.696;2.114;2023-07-29T00:12:40;99306.36;;;19.99;75.11
12536;BME280;6334;48.696;2.114;2023-07-29T00:15:11;99302.73;;;19.99;75.45
12536;BME280;6334;48.696;2.114;2023-07-29T00:17:42;99299.15;;;19.93;74.13
12536;BME280;6334;48.696;2.114;2023-07-29T00:20:13;99309.98;;;19.76;75.59
12536;BME280;6334;48.696;2.114;2023-07-29T00:22:43;99304.70;;;19.72;75.73
12536;BME280;6334;48.696;2.114;2023-07-29T00:25:14;99297.54;;;19.87;74.54
12536;BME280;6334;48.696;2.114;2023-07-29T00:27:44;99299.70;;;19.59;75.22
12536;BME280;6334;48.696;2.114;2023-07-29T00:30:15;99310.90;;;19.60;74.87
12536;BME280;6334;48.696;2.114;2023-07-29T00:32:45;99313.28;;;19.67;75.09
12536;BME280;6334;48.696;2.114;2023-07-29T00:35:16;99315.39;;;19.66;75.68
12536;BME280;6334;48.696;2.114;2023-07-29T00:37:46;99318.88;;;19.68;75.37
12536;BME280;6334;48.696;2.114;2023-07-29T00:40:20;99314.75;;;19.52;75.50
12536;BME280;6334;48.696;2.114;2023-07-29T00:42:50;99316.91;;;19.54;75.37
12536;BME280;6334;48.696;2.114;2023-07-29T00:45:21;99305.36;;;19.60;76.07
12536;BME280;6334;48.696;2.114;2023-07-29T00:47:51;99312.09;;;19.61;75.04
12536;BME280;6334;48.696;2.114;2023-07-29T00:50:21;99317.67;;;19.50;75.84
12536;BME280;6334;48.696;2.114;2023-07-29T00:52:52;99323.39;;;19.55;75.31
12536;BME280;6334;48.696;2.114;2023-07-29T00:55:22;99310.59;;;19.33;75.88
12536;BME280;6334;48.696;2.114;2023-07-29T00:57:53;99310.84;;;19.62;74.55
12536;BME280;6334;48.696;2.114;2023-07-29T01:00:23;99309.14;;;19.30;76.23
12536;BME280;6334;48.696;2.114;2023-07-29T01:02:54;99313.80;;;19.30;76.47
12536;BME280;6334;48.696;2.114;2023-07-29T01:05:25;99319.75;;;19.40;75.45
12536;BME280;6334;48.696;2.114;2023-07-29T01:08:13;99321.25;;;19.51;75.12
12536;BME280;6334;48.696;2.114;2023-07-29T01:10:56;99308.59;;;19.40;75.79
12536;BME280;6334;48.696;2.114;2023-07-29T01:13:37;99299.59;;;19.63;75.17
12536;BME280;6334;48.696;2.114;2023-07-29T01:15:55;99281.69;;;19.35;75.91
12536;BME280;6334;48.696;2.114;2023-07-29T01:18:31;99283.99;;;19.50;76.13
12536;BME280;6334;48.696;2.114;2023-07-29T01:21:04;99300.87;;;19.33;76.27
12536;BME280;6334;48.696;2.114;2023-07-29T01:23:34;99301.09;;;19.18;76.80
12536;BME280;6334;48.696;2.114;2023-07-29T01:26:04;99304.39;;;19.30;76.71
12536;BME280;6334;48.696;2.114;2023-07-29T01:28:34;99299.42;;;19.25;75.95
12536;BME280;6334;48.696;2.114;2023-07-29T01:31:16;99282.85;;;19.02;76.28
12536;BME280;6334;48.696;2.114;2023-07-29T01:34:06;99293.37;;;19.38;75.68
12536;BME280;6334;48.696;2.114;2023-07-29T01:36:20;99292.22;;;19.11;76.35
12536;BME280;6334;48.696;2.114;2023-07-29T01:38:51;99294.35;;;19.08;76.37
12536;BME280;6334;48.696;2.114;2023-07-29T01:41:21;99290.45;;;19.07;76.45
12536;BME280;6334;48.696;2.114;2023-07-29T01:43:52;99301.55;;;19.09;76.72
12536;BME280;6334;48.696;2.114;2023-07-29T01:46:22;99315.09;;;18.98;76.55
12536;BME280;6334;48.696;2.114;2023-07-29T01:48:52;99315.36;;;19.08;76.71
12536;BME280;6334;48.696;2.114;2023-07-29T01:51:23;99323.78;;;19.12;76.69
12536;BME280;6334;48.696;2.114;2023-07-29T01:53:53;99329.05;;;18.78;77.66
12536;BME280;6334;48.696;2.114;2023-07-29T01:56:24;99320.52;;;18.94;77.15
12536;BME280;6334;48.696;2.114;2023-07-29T01:58:54;99286.55;;;19.06;76.74
12536;BME280;6334;48.696;2.114;2023-07-29T02:01:26;99281.16;;;19.48;75.54
12536;BME280;6334;48.696;2.114;2023-07-29T02:03:56;99297.75;;;19.46;75.72
12536;BME280;6334;48.696;2.114;2023-07-29T02:06:26;99295.64;;;18.85;77.18
12536;BME280;6334;48.696;2.114;2023-07-29T02:08:57;99289.78;;;19.10;76.75
12536;BME280;6334;48.696;2.114;2023-07-29T02:11:27;99300.84;;;19.24;76.25
12536;BME280;6334;48.696;2.114;2023-07-29T02:13:58;99297.57;;;18.77;77.52
12536;BME280;6334;48.696;2.114;2023-07-29T02:16:28;99290.90;;;18.87;77.12
12536;BME280;6334;48.696;2.114;2023-07-29T02:18:59;99293.15;;;18.78;77.69
12536;BME280;6334;48.696;2.114;2023-07-29T02:21:29;99302.58;;;18.99;76.95
12536;BME280;6334;48.696;2.114;2023-07-29T02:24:00;99303.80;;;18.71;77.38
12536;BME280;6334;48.696;2.114;2023-07-29T02:26:30;99307.24;;;18.77;77.56
12536;BME280;6334;48.696;2.114;2023-07-29T02:29:01;99309.82;;;18.79;77.04
12536;BME280;6334;48.696;2.114;2023-07-29T02:31:31;99305.48;;;18.52;78.20
12536;BME280;6334;48.696;2.114;2023-07-29T02:34:02;99298.05;;;18.51;78.26
12536;BME280;6334;48.696;2.114;2023-07-29T02:36:32;99300.10;;;18.70;77.57
12536;BME280;6334;48.696;2.114;2023-07-29T02:39:03;99298.83;;;18.50;78.00
12536;BME280;6334;48.696;2.114;2023-07-29T02:41:33;99303.36;;;18.40;78.62
12536;BME280;6334;48.696;2.114;2023-07-29T02:44:04;99302.02;;;18.51;78.17
12536;BME280;6334;48.696;2.114;2023-07-29T02:46:34;99303.98;;;18.62;77.46
12536;BME280;6334;48.696;2.114;2023-07-29T02:49:05;99300.10;;;18.55;77.73
12536;BME280;6334;48.696;2.114;2023-07-29T02:51:35;99301.59;;;18.34;78.60
12536;BME280;6334;48.696;2.114;2023-07-29T02:54:06;99297.84;;;18.62;78.12
12536;BME280;6334;48.696;2.114;2023-07-29T02:56:36;99303.47;;;18.59;77.52
12536;BME280;6334;48.696;2.114;2023-07-29T02:59:06;99310.50;;;18.40;78.35
12536;BME280;6334;48.696;2.114;2023-07-29T03:01:37;99321.20;;;18.42;78.54
12536;BME280;6334;48.696;2.114;2023-07-29T03:04:07;99315.47;;;18.25;78.37
12536;BME280;6334;48.696;2.114;2023-07-29T03:06:38;99323.51;;;18.21;78.74
12536;BME280;6334;48.696;2.114;2023-07-29T03:09:08;99329.78;;;18.14;78.93
12536;BME280;6334;48.696;2.114;2023-07-29T03:11:39;99329.56;;;18.28;78.49
12536;BME280;6334;48.696;2.114;2023-07-29T03:14:09;99331.94;;;18.24;79.02
12536;BME280;6334;48.696;2.114;2023-07-29T03:16:40;99334.17;;;18.38;78.38
12536;BME280;6334;48.696;2.114;2023-07-29T03:19:10;99341.27;;;18.29;78.78
12536;BME280;6334;48.696;2.114;2023-07-29T03:21:41;99334.88;;;18.24;78.92
12536;BME280;6334;48.696;2.114;2023-07-29T03:24:11;99347.29;;;18.30;78.92
12536;BME280;6334;48.696;2.114;2023-07-29T03:26:41;99344.69;;;18.45;78.27
12536;BME280;6334;48.696;2.114;2023-07-29T03:29:12;99342.41;;;18.69;77.84
12536;BME280;6334;48.696;2.114;2023-07-29T03:31:43;99337.75;;;18.30;79.09
12536;BME280;6334;48.696;2.114;2023-07-29T03:34:13;99342.47;;;18.32;79.20
12536;BME280;6334;48.696;2.114;2023-07-29T03:36:43;99344.58;;;18.42;78.69
12536;BME280;6334;48.696;2.114;2023-07-29T03:39:14;99334.23;;;18.59;77.95
12536;BME280;6334;48.696;2.114;2023-07-29T03:41:44;99329.92;;;18.29;79.08
12536;BME280;6334;48.696;2.114;2023-07-29T03:44:15;99332.56;;;18.50;78.65
12536;BME280;6334;48.696;2.114;2023-07-29T03:46:45;99331.33;;;18.52;78.68
12536;BME280;6334;48.696;2.114;2023-07-29T03:49:16;99331.64;;;18.28;79.08
12536;BME280;6334;48.696;2.114;2023-07-29T03:51:46;99338.16;;;18.49;78.80
12536;BME280;6334;48.696;2.114;2023-07-29T03:54:17;99339.25;;;18.34;78.96
12536;BME280;6334;48.696;2.114;2023-07-29T03:56:47;99339.18;;;18.47;78.58
12536;BME280;6334;48.696;2.114;2023-07-29T03:59:18;99343.53;;;18.72;77.66
12536;BME280;6334;48.696;2.114;2023-07-29T04:01:48;99349.00;;;18.59;78.14
12536;BME280;6334;48.696;2.114;2023-07-29T04:04:18;99352.20;;;18.63;78.23
12536;BME280;6334;48.696;2.114;2023-07-29T04:06:49;99352.78;;;18.57;78.24
12536;BME280;6334;48.696;2.114;2023-07-29T04:09:19;99357.72;;;18.42;78.36
12536;BME280;6334;48.696;2.114;2023-07-29T04:11:50;99360.58;;;18.68;77.90
12536;BME280;6334;48.696;2.114;2023-07-29T04:14:20;99366.63;;;18.70;78.04
12536;BME280;6334;48.696;2.114;2023-07-29T04:16:51;99364.47;;;18.41;78.88
12536;BME280;6334;48.696;2.114;2023-07-29T04:19:21;99365.84;;;18.63;78.37
12536;BME280;6334;48.696;2.114;2023-07-29T04:21:52;99366.36;;;18.66;78.26
12536;BME280;6334;48.696;2.114;2023-07-29T04:24:22;99356.31;;;18.45;78.70
12536;BME280;6334;48.696;2.114;2023-07-29T04:26:53;99352.09;;;18.45;79.01
12536;BME280;6334;48.696;2.114;2023-07-29T04:29:23;99353.16;;;18.68;78.45
12536;BME280;6334;48.696;2.114;2023-07-29T04:31:53;99349.30;;;18.54;78.81
12536;BME280;6334;48.696;2.114;2023-07-29T04:34:24;99346.89;;;18.53;78.85
12536;BME280;6334;48.696;2.114;2023-07-29T04:36:54;99347.45;;;18.62;78.49
12536;BME280;6334;48.696;2.114;2023-07-29T04:39:25;99345.20;;;18.35;79.60
12536;BME280;6334;48.696;2.114;2023-07-29T04:41:55;99348.20;;;18.04;80.47
12536;BME280;6334;48.696;2.114;2023-07-29T04:44:27;99346.50;;;18.41;79.08
12536;BME280;6334;48.696;2.114;2023-07-29T04:46:57;99354.18;;;18.47;79.02
12536;BME280;6334;48.696;2.114;2023-07-29T04:49:29;99355.86;;;18.12;79.79
12536;BME280;6334;48.696;2.114;2023-07-29T04:51:59;99362.67;;;17.99;80.31
12536;BME280;6334;48.696;2.114;2023-07-29T04:54:30;99357.88;;;18.24;79.36
12536;BME280;6334;48.696;2.114;2023-07-29T04:57:00;99355.76;;;18.23;79.35
12536;BME280;6334;48.696;2.114;2023-07-29T04:59:31;99356.59;;;18.14;79.41
12536;BME280;6334;48.696;2.114;2023-07-29T05:02:01;99364.10;;;18.20;79.37
12536;BME280;6334;48.696;2.114;2023-07-29T05:04:32;99356.19;;;18.13;79.44
12536;BME280;6334;48.696;2.114;2023-07-29T05:07:02;99358.30;;;18.27;79.03
12536;BME280;6334;48.696;2.114;2023-07-29T05:09:33;99356.43;;;18.48;78.30
12536;BME280;6334;48.696;2.114;2023-07-29T05:12:03;99362.25;;;18.29;78.72
12536;BME280;6334;48.696;2.114;2023-07-29T05:14:33;99364.66;;;18.11;79.39
12536;BME280;6334;48.696;2.114;2023-07-29T05:17:04;99365.46;;;18.33;78.51
12536;BME280;6334;48.696;2.114;2023-07-29T05:19:34;99368.68;;;18.02;79.11
12536;BME280;6334;48.696;2.114;2023-07-29T05:22:05;99365.71;;;18.41;77.74
12536;BME280;6334;48.696;2.114;2023-07-29T05:24:35;99366.28;;;18.15;78.61
12536;BME280;6334;48.696;2.114;2023-07-29T05:27:06;99365.09;;;18.16;78.54
12536;BME280;6334;48.696;2.114;2023-07-29T05:29:38;99369.11;;;18.27;77.79
12536;BME280;6334;48.696;2.114;2023-07-29T05:32:08;99362.85;;;18.25;77.95
12536;BME280;6334;48.696;2.114;2023-07-29T05:34:39;99365.72;;;18.30;78.00
12536;BME280;6334;48.696;2.114;2023-07-29T05:37:09;99365.88;;;18.36;77.82
12536;BME280;6334;48.696;2.114;2023-07-29T05:39:40;99367.05;;;18.06;78.30
12536;BME280;6334;48.696;2.114;2023-07-29T05:42:10;99365.28;;;18.07;78.00
12536;BME280;6334;48.696;2.114;2023-07-29T05:44:41;99364.84;;;18.14;78.18
12536;BME280;6334;48.696;2.114;2023-07-29T05:47:11;99362.88;;;18.11;77.50
12536;BME280;6334;48.696;2.114;2023-07-29T05:49:41;99359.10;;;18.11;77.98
12536;BME280;6334;48.696;2.114;2023-07-29T05:52:12;99359.23;;;18.23;77.19
12536;BME280;6334;48.696;2.114;2023-07-29T05:54:42;99354.93;;;18.10;77.33
12536;BME280;6334;48.696;2.114;2023-07-29T05:57:13;99349.17;;;18.00;77.55
12536;BME280;6334;48.696;2.114;2023-07-29T05:59:43;99354.06;;;18.34;76.96
12536;BME280;6334;48.696;2.114;2023-07-29T06:02:14;99360.41;;;18.32;76.41
12536;BME280;6334;48.696;2.114;2023-07-29T06:04:44;99368.48;;;18.70;75.58
12536;BME280;6334;48.696;2.114;2023-07-29T06:07:15;99371.70;;;18.42;76.92
12536;BME280;6334;48.696;2.114;2023-07-29T06:09:45;99383.14;;;18.53;75.80
12536;BME280;6334;48.696;2.114;2023-07-29T06:12:15;99384.70;;;18.57;76.30
12536;BME280;6334;48.696;2.114;2023-07-29T06:14:47;99378.69;;;18.44;76.52
12536;BME280;6334;48.696;2.114;2023-07-29T06:17:18;99389.03;;;18.23;76.45
12536;BME280;6334;48.696;2.114;2023-07-29T06:19:48;99400.00;;;18.74;75.16
12536;BME280;6334;48.696;2.114;2023-07-29T06:22:19;99398.63;;;18.64;75.88
12536;BME280;6334;48.696;2.114;2023-07-29T06:24:49;99404.87;;;18.58;75.86
12536;BME280;6334;48.696;2.114;2023-07-29T06:27:20;99399.89;;;18.95;74.77
12536;BME280;6334;48.696;2.114;2023-07-29T06:29:50;99402.90;;;18.74;75.04
12536;BME280;6334;48.696;2.114;2023-07-29T06:32:21;99404.55;;;19.46;73.90
12536;BME280;6334;48.696;2.114;2023-07-29T06:34:51;99404.81;;;18.91;75.09
12536;BME280;6334;48.696;2.114;2023-07-29T06:37:22;99406.22;;;19.15;74.54
12536;BME280;6334;48.696;2.114;2023-07-29T06:39:52;99410.02;;;18.98;74.88
12536;BME280;6334;48.696;2.114;2023-07-29T06:42:23;99402.05;;;18.91;75.21
12536;BME280;6334;48.696;2.114;2023-07-29T06:44:55;99398.98;;;18.61;75.62
12536;BME280;6334;48.696;2.114;2023-07-29T06:47:25;99410.34;;;18.83;75.17
12536;BME280;6334;48.696;2.114;2023-07-29T06:49:55;99415.59;;;18.71;75.67
12536;BME280;6334;48.696;2.114;2023-07-29T06:52:26;99412.50;;;18.70;76.54
12536;BME280;6334;48.696;2.114;2023-07-29T06:54:56;99419.77;;;18.68;76.17
12536;BME280;6334;48.696;2.114;2023-07-29T06:57:30;99421.36;;;18.80;76.13
12536;BME280;6334;48.696;2.114;2023-07-29T07:00:00;99425.55;;;19.06;75.81
12536;BME280;6334;48.696;2.114;2023-07-29T07:02:30;99426.05;;;18.92;75.69
12536;BME280;6334;48.696;2.114;2023-07-29T07:05:01;99422.97;;;19.37;74.86
12536;BME280;6334;48.696;2.114;2023-07-29T07:07:31;99429.86;;;18.96;75.71
12536;BME280;6334;48.696;2.114;2023-07-29T07:10:02;99435.44;;;19.24;75.32
12536;BME280;6334;48.696;2.114;2023-07-29T07:12:32;99424.30;;;18.96;76.15
12536;BME280;6334;48.696;2.114;2023-07-29T07:15:03;99422.35;;;19.02;75.40
12536;BME280;6334;48.696;2.114;2023-07-29T07:17:33;99424.45;;;19.23;74.37
12536;BME280;6334;48.696;2.114;2023-07-29T07:20:04;99430.64;;;18.74;75.59
12536;BME280;6334;48.696;2.114;2023-07-29T07:22:34;99435.16;;;19.06;75.57
12536;BME280;6334;48.696;2.114;2023-07-29T07:25:05;99437.61;;;18.93;75.29
12536;BME280;6334;48.696;2.114;2023-07-29T07:27:36;99438.70;;;18.99;74.98
12536;BME280;6334;48.696;2.114;2023-07-29T07:30:06;99439.94;;;19.08;74.71
12536;BME280;6334;48.696;2.114;2023-07-29T07:32:36;99433.35;;;18.89;75.29
12536;BME280;6334;48.696;2.114;2023-07-29T07:35:07;99438.23;;;19.03;75.67
12536;BME280;6334;48.696;2.114;2023-07-29T07:37:37;99438.98;;;19.31;74.86
12536;BME280;6334;48.696;2.114;2023-07-29T07:40:08;99431.70;;;19.05;74.95
12536;BME280;6334;48.696;2.114;2023-07-29T07:42:38;99432.48;;;19.43;74.37
12536;BME280;6334;48.696;2.114;2023-07-29T07:45:09;99435.01;;;19.34;74.69
12536;BME280;6334;48.696;2.114;2023-07-29T07:47:39;99440.68;;;19.60;73.68
12536;BME280;6334;48.696;2.114;2023-07-29T07:50:09;99432.84;;;19.31;74.75
12536;BME280;6334;48.696;2.114;2023-07-29T07:52:40;99436.78;;;19.62;74.25
12536;BME280;6334;48.696;2.114;2023-07-29T07:55:10;99442.76;;;19.39;74.87
12536;BME280;6334;48.696;2.114;2023-07-29T07:57:41;99447.52;;;19.56;74.17
12536;BME280;6334;48.696;2.114;2023-07-29T08:00:11;99438.00;;;19.28;74.56
12536;BME280;6334;48.696;2.114;2023-07-29T08:02:43;99446.38;;;19.73;73.27
12536;BME280;6334;48.696;2.114;2023-07-29T08:05:12;99441.47;;;19.86;73.31
12536;BME280;6334;48.696;2.114;2023-07-29T08:07:43;99442.55;;;19.58;74.18
12536;BME280;6334;48.696;2.114;2023-07-29T08:10:14;99447.16;;;19.45;74.44
12536;BME280;6334;48.696;2.114;2023-07-29T08:12:45;99451.67;;;19.48;74.72
12536;BME280;6334;48.696;2.114;2023-07-29T08:15:15;99446.81;;;19.37;74.36
12536;BME280;6334;48.696;2.114;2023-07-29T08:17:46;99456.02;;;19.71;73.25
12536;BME280;6334;48.696;2.114;2023-07-29T08:20:16;99452.16;;;19.78;72.20
12536;BME280;6334;48.696;2.114;2023-07-29T08:22:47;99454.08;;;20.27;71.54
12536;BME280;6334;48.696;2.114;2023-07-29T08:25:17;99453.79;;;20.42;70.34
12536;BME280;6334;48.696;2.114;2023-07-29T08:27:47;99453.65;;;20.54;70.25
12536;BME280;6334;48.696;2.114;2023-07-29T08:30:18;99443.15;;;21.09;68.99
12536;BME280;6334;48.696;2.114;2023-07-29T08:32:48;99444.84;;;20.64;70.34
12536;BME280;6334;48.696;2.114;2023-07-29T08:35:19;99446.06;;;20.75;70.21
12536;BME280;6334;48.696;2.114;2023-07-29T08:37:49;99443.14;;;20.69;70.54
12536;BME280;6334;48.696;2.114;2023-07-29T08:40:23;99445.59;;;20.49;71.29
12536;BME280;6334;48.696;2.114;2023-07-29T08:42:50;99443.31;;;20.39;71.21
12536;BME280;6334;48.696;2.114;2023-07-29T08:45:21;99437.73;;;20.51;71.28
12536;BME280;6334;48.696;2.114;2023-07-29T08:47:52;99438.48;;;20.59;71.27
12536;BME280;6334;48.696;2.114;2023-07-29T08:50:22;99428.82;;;20.44;71.18
12536;BME280;6334;48.696;2.114;2023-07-29T08:52:52;99433.98;;;20.64;71.01
12536;BME280;6334;48.696;2.114;2023-07-29T08:55:22;99427.92;;;20.52;71.10
12536;BME280;6334;48.696;2.114;2023-07-29T08:57:53;99429.80;;;20.64;70.54
12536;BME280;6334;48.696;2.114;2023-07-29T09:00:23;99432.59;;;20.61;70.26
12536;BME280;6334;48.696;2.114;2023-07-29T09:02:54;99433.09;;;21.00;69.52
12536;BME280;6334;48.696;2.114;2023-07-29T09:05:25;99443.77;;;20.96;70.25
12536;BME280;6334;48.696;2.114;2023-07-29T09:07:56;99436.65;;;21.11;70.17
12536;BME280;6334;48.696;2.114;2023-07-29T09:10:26;99433.17;;;20.90;70.60
12536;BME280;6334;48.696;2.114;2023-07-29T09:12:57;99436.92;;;21.26;69.74
12536;BME280;6334;48.696;2.114;2023-07-29T09:15:31;99436.40;;;22.09;67.58
12536;BME280;6334;48.696;2.114;2023-07-29T09:18:10;99434.05;;;21.58;68.30
12536;BME280;6334;48.696;2.114;2023-07-29T09:20:31;99434.48;;;21.34;68.91
12536;BME280;6334;48.696;2.114;2023-07-29T09:23:01;99428.87;;;21.16;69.49
12536;BME280;6334;48.696;2.114;2023-07-29T09:25:32;99427.45;;;21.43;68.64
12536;BME280;6334;48.696;2.114;2023-07-29T09:28:07;99425.13;;;21.08;69.61
12536;BME280;6334;48.696;2.114;2023-07-29T09:30:32;99425.00;;;21.25;69.73
12536;BME280;6334;48.696;2.114;2023-07-29T09:33:03;99431.52;;;21.00;70.31
12536;BME280;6334;48.696;2.114;2023-07-29T09:35:34;99427.55;;;20.99;70.24
12536;BME280;6334;48.696;2.114;2023-07-29T09:38:04;99429.45;;;20.76;70.91
12536;BME280;6334;48.696;2.114;2023-07-29T09:40:38;99433.72;;;20.73;70.44
12536;BME280;6334;48.696;2.114;2023-07-29T09:43:08;99430.24;;;20.70;70.97
12536;BME280;6334;48.696;2.114;2023-07-29T09:45:39;99436.92;;;20.97;70.34
12536;BME280;6334;48.696;2.114;2023-07-29T09:48:10;99436.51;;;20.95;70.97
12536;BME280;6334;48.696;2.114;2023-07-29T09:50:40;99433.44;;;21.05;70.78
12536;BME280;6334;48.696;2.114;2023-07-29T09:53:10;99434.33;;;20.82;71.78
12536;BME280;6334;48.696;2.114;2023-07-29T09:55:45;99433.98;;;20.77;71.63
12536;BME280;6334;48.696;2.114;2023-07-29T09:58:11;99429.12;;;20.73;71.15
12536;BME280;6334;48.696;2.114;2023-07-29T10:00:42;99426.63;;;21.09;70.77
12536;BME280;6334;48.696;2.114;2023-07-29T10:03:12;99427.95;;;21.43;69.92
12536;BME280;6334;48.696;2.114;2023-07-29T10:05:43;99429.59;;;21.20;70.78
12536;BME280;6334;48.696;2.114;2023-07-29T10:08:13;99428.17;;;21.49;70.34
12536;BME280;6334;48.696;2.114;2023-07-29T10:10:44;99428.17;;;21.30;69.55
12536;BME280;6334;48.696;2.114;2023-07-29T10:13:14;99432.91;;;21.06;70.43
12536;BME280;6334;48.696;2.114;2023-07-29T10:15:44;99434.34;;;21.11;70.37
12536;BME280;6334;48.696;2.114;2023-07-29T10:18:15;99436.80;;;21.18;70.45
12536;BME280;6334;48.696;2.114;2023-07-29T10:20:47;99433.31;;;21.00;70.98
12536;BME280;6334;48.696;2.114;2023-07-29T10:23:21;99427.37;;;21.21;70.00
12536;BME280;6334;48.696;2.114;2023-07-29T10:25:55;99432.75;;;21.57;69.28
12536;BME280;6334;48.696;2.114;2023-07-29T10:28:21;99422.33;;;22.22;68.49
12536;BME280;6334;48.696;2.114;2023-07-29T10:30:51;99428.60;;;22.19;68.29
12536;BME280;6334;48.696;2.114;2023-07-29T10:33:24;99426.81;;;21.88;69.09
12536;BME280;6334;48.696;2.114;2023-07-29T10:35:54;99429.88;;;21.45;70.14
12536;BME280;6334;48.696;2.114;2023-07-29T10:38:24;99429.37;;;21.54;70.41
12536;BME280;6334;48.696;2.114;2023-07-29T10:40:55;99427.46;;;21.67;70.24
12536;BME280;6334;48.696;2.114;2023-07-29T10:43:35;99427.09;;;21.37;70.57
12536;BME280;6334;48.696;2.114;2023-07-29T10:46:17;99427.10;;;21.72;69.71
12536;BME280;6334;48.696;2.114;2023-07-29T10:48:55;99422.31;;;21.91;70.00
12536;BME280;6334;48.696;2.114;2023-07-29T10:51:28;99410.76;;;21.45;69.76
12536;BME280;6334;48.696;2.114;2023-07-29T10:53:59;99424.84;;;21.70;69.64
12536;BME280;6334;48.696;2.114;2023-07-29T10:56:34;99418.44;;;21.64;69.68
12536;BME280;6334;48.696;2.114;2023-07-29T11:04:24;99414.95;;;22.04;68.59
12536;BME280;6334;48.696;2.114;2023-07-29T11:09:40;99415.11;;;22.39;67.70
12536;BME280;6334;48.696;2.114;2023-07-29T11:15:11;99420.28;;;22.32;66.92
12536;BME280;6334;48.696;2.114;2023-07-29T11:17:35;99419.20;;;22.60;65.92
12536;BME280;6334;48.696;2.114;2023-07-29T11:20:05;99414.51;;;22.62;67.20
12536;BME280;6334;48.696;2.114;2023-07-29T11:22:36;99400.54;;;23.09;65.31
12536;BME280;6334;48.696;2.114;2023-07-29T11:25:07;99401.66;;;22.96;65.78
12536;BME280;6334;48.696;2.114;2023-07-29T11:27:37;99400.78;;;22.91;66.94
12536;BME280;6334;48.696;2.114;2023-07-29T11:30:08;99400.61;;;22.62;66.23
12536;BME280;6334;48.696;2.114;2023-07-29T11:32:38;99395.34;;;22.62;66.14
12536;BME280;6334;48.696;2.114;2023-07-29T11:35:08;99394.05;;;22.33;67.28
12536;BME280;6334;48.696;2.114;2023-07-29T11:37:38;99395.87;;;21.89;69.97
12536;BME280;6334;48.696;2.114;2023-07-29T11:40:09;99394.80;;;22.09;71.18
12536;BME280;6334;48.696;2.114;2023-07-29T11:42:39;99396.00;;;22.26;70.25
12536;BME280;6334;48.696;2.114;2023-07-29T11:45:10;99397.76;;;22.05;71.68
12536;BME280;6334;48.696;2.114;2023-07-29T11:47:40;99397.48;;;21.71;72.04
12536;BME280;6334;48.696;2.114;2023-07-29T11:50:11;99406.52;;;21.44;72.83
12536;BME280;6334;48.696;2.114;2023-07-29T11:52:44;99403.92;;;21.43;75.68
12536;BME280;6334;48.696;2.114;2023-07-29T11:55:14;99395.56;;;21.41;75.86
12536;BME280;6334;48.696;2.114;2023-07-29T11:57:45;99391.47;;;21.45;77.29
12536;BME280;6334;48.696;2.114;2023-07-29T12:00:15;99390.38;;;21.81;76.54
12536;BME280;6334;48.696;2.114;2023-07-29T12:02:46;99392.81;;;22.10;75.16
12536;BME280;6334;48.696;2.114;2023-07-29T12:05:16;99388.30;;;21.63;77.13
12536;BME280;6334;48.696;2.114;2023-07-29T12:07:46;99381.31;;;22.10;75.97
12536;BME280;6334;48.696;2.114;2023-07-29T12:10:17;99382.15;;;22.45;73.69
12536;BME280;6334;48.696;2.114;2023-07-29T12:12:50;99375.00;;;22.27;74.29
12536;BME280;6334;48.696;2.114;2023-07-29T12:15:24;99369.11;;;22.25;73.29
12536;BME280;6334;48.696;2.114;2023-07-29T12:17:54;99369.73;;;22.66;72.62
12536;BME280;6334;48.696;2.114;2023-07-29T12:20:27;99370.79;;;22.36;72.44
12536;BME280;6334;48.696;2.114;2023-07-29T12:22:58;99367.69;;;22.22;71.89
12536;BME280;6334;48.696;2.114;2023-07-29T12:25:28;99360.78;;;22.04;72.32
12536;BME280;6334;48.696;2.114;2023-07-29T12:28:07;99369.25;;;21.97;72.72
12536;BME280;6334;48.696;2.114;2023-07-29T12:30:43;99371.72;;;22.00;72.26
12536;BME280;6334;48.696;2.114;2023-07-29T12:33:33;99366.63;;;22.53;71.38
12536;BME280;6334;48.696;2.114;2023-07-29T12:36:02;99365.83;;;22.89;69.61
12536;BME280;6334;48.696;2.114;2023-07-29T12:38:32;99361.38;;;23.09;68.38
12536;BME280;6334;48.696;2.114;2023-07-29T12:41:02;99358.56;;;23.09;68.33
12536;BME280;6334;48.696;2.114;2023-07-29T12:43:33;99354.31;;;22.77;68.32
12536;BME280;6334;48.696;2.114;2023-07-29T12:46:03;99358.17;;;22.56;69.23
12536;BME280;6334;48.696;2.114;2023-07-29T12:48:34;99358.03;;;22.53;69.57
12536;BME280;6334;48.696;2.114;2023-07-29T12:51:04;99355.27;;;22.94;68.91
12536;BME280;6334;48.696;2.114;2023-07-29T12:53:35;99345.48;;;22.80;68.56
12536;BME280;6334;48.696;2.114;2023-07-29T12:56:05;99340.11;;;22.75;68.20
12536;BME280;6334;48.696;2.114;2023-07-29T12:58:36;99338.86;;;23.15;67.99
12536;BME280;6334;48.696;2.114;2023-07-29T13:01:06;99340.75;;;22.94;67.26
12536;BME280;6334;48.696;2.114;2023-07-29T13:03:37;99342.72;;;23.09;67.66
12536;BME280;6334;48.696;2.114;2023-07-29T13:06:07;99337.45;;;23.27;67.13
12536;BME280;6334;48.696;2.114;2023-07-29T13:08:37;99329.53;;;23.28;67.07
12536;BME280;6334;48.696;2.114;2023-07-29T13:13:37;99331.72;;;23.88;64.54
12536;BME280;6334;48.696;2.114;2023-07-29T13:16:08;99332.71;;;23.47;64.44
12536;BME280;6334;48.696;2.114;2023-07-29T13:18:38;99327.48;;;23.58;64.50
12536;BME280;6334;48.696;2.114;2023-07-29T13:21:09;99330.26;;;23.61;63.88
12536;BME280;6334;48.696;2.114;2023-07-29T13:23:39;99331.22;;;23.30;65.14
12536;BME280;6334;48.696;2.114;2023-07-29T13:26:09;99332.18;;;23.43;65.18
12536;BME280;6334;48.696;2.114;2023-07-29T13:28:40;99326.06;;;23.41;64.38
12536;BME280;6334;48.696;2.114;2023-07-29T13:31:11;99325.25;;;23.68;64.60
12536;BME280;6334;48.696;2.114;2023-07-29T13:33:42;99324.66;;;23.59;65.71
12536;BME280;6334;48.696;2.114;2023-07-29T13:36:12;99321.70;;;23.58;63.47
12536;BME280;6334;48.696;2.114;2023-07-29T13:38:43;99312.12;;;23.47;63.16
12536;BME280;6334;48.696;2.114;2023-07-29T13:41:13;99314.75;;;23.38;62.62